KBBW/BBW METAR and TAF weather

Enter ICAO airport designator
Station Type Date Time Source
KBBW METAR 2020/07/10 14:53 UTC NOAA

KBBW 101453Z AUTO 08004KT 10SM CLR 24/17 A3009 RMK AO2 SLP167 T02440167 51014


Station Type Date Time Source
KBBW Decoded METAR 2020/07/10 14:53 UTC NOAA

BROKEN BOW MUNICIPAL AIRPORT, NE, United States (KBBW) 41-26N 099-38W
Jul 10, 2020 - 10:53 AM EDT / 2020.07.10 1453 UTC
Wind: from the E (080 degrees) at 5 MPH (4 KT):0
Visibility: 10 mile(s):0
Sky conditions: clear
Temperature: 75.9 F (24.4 C)
Dew Point: 62.1 F (16.7 C)
Relative Humidity: 62%
Pressure (altimeter): 30.09 in. Hg (1018 hPa)
Pressure tendency: 0.04 inches (1.4 hPa) higher than three hours ago
ob: KBBW 101453Z AUTO 08004KT 10SM CLR 24/17 A3009 RMK AO2 SLP167 T02440167 51014
cycle: 15

Station Type Date Time Source
KBBW TAF UTC NOAA

Error!

Example: see airport list